Time;durP1;ratioP1;P1;durP2;ratioP2;P2;SDS_P1;SDS_P2;PMS_P1;PMS_P2;Temp;Humidity;BMP_temperature;BMP_pressure;BME280_temperature;BME280_humidity;BME280_pressure;Samples;Min_cycle;Max_cycle;Signal;HPM_P1;HPM_P2
2022/06/03 22:00:55;;;;;;;6.10;4.50;;;;;;;17.20;71.57;101639.83;104412;1285;602504;-69
2022/06/03 22:03:26;;;;;;;6.90;3.90;;;;;;;17.07;71.94;101641.45;106394;1260;60806;-65
2022/06/03 22:05:55;;;;;;;6.30;4.40;;;;;;;17.01;73.15;101638.98;109073;1256;61661;-67
2022/06/03 22:08:24;;;;;;;6.80;4.00;;;;;;;17.17;73.11;101634.65;109033;1256;71742;-70
2022/06/03 22:12:41;;;;;;;10.70;4.30;;;;;;;17.28;72.56;101636.02;108831;1257;70881;-65
2022/06/03 22:13:53;;;;;;;6.40;3.90;;;;;;;17.21;73.06;101634.81;106321;1257;402796;-67
2022/06/03 22:16:23;;;;;;;8.90;4.10;;;;;;;17.17;73.28;101630.90;106629;1255;73173;-67
2022/06/03 22:18:52;;;;;;;6.20;4.10;;;;;;;17.10;73.67;101631.02;106795;1254;60860;-68
2022/06/03 22:21:21;;;;;;;6.50;4.50;;;;;;;17.02;73.83;101633.60;106716;1256;59137;-67
2022/06/03 22:23:50;;;;;;;5.20;4.10;;;;;;;16.94;74.03;101634.83;106806;1254;72281;-69
2022/06/03 22:26:55;;;;;;;7.60;4.20;;;;;;;16.87;74.28;101639.29;106811;1254;73257;-68
2022/06/03 22:29:46;;;;;;;9.00;4.40;;;;;;;16.79;73.90;101637.17;106698;1256;69995;-67
2022/06/03 22:32:46;;;;;;;4.60;4.10;;;;;;;16.69;73.11;101639.40;106688;1256;74084;-65
2022/06/03 22:35:48;;;;;;;6.60;4.00;;;;;;;16.54;73.57;101636.39;106781;1254;62129;-66
2022/06/03 22:41:19;;;;;;;5.30;4.00;;;;;;;16.30;75.52;101638.85;106733;1254;71168;-65
2022/06/03 22:44:00;;;;;;;9.00;4.30;;;;;;;16.23;76.30;101640.36;106938;1251;72686;-67
2022/06/03 22:46:33;;;;;;;8.70;4.40;;;;;;;16.26;76.48;101640.48;106942;1252;70578;-67
2022/06/03 22:49:04;;;;;;;6.10;4.80;;;;;;;16.24;76.42;101637.45;106832;1253;72659;-66
2022/06/03 22:51:33;;;;;;;5.00;4.20;;;;;;;16.15;76.35;101638.18;106973;1252;63061;-66
2022/06/03 22:54:03;;;;;;;6.50;4.60;;;;;;;16.07;76.24;101636.34;106886;1253;61826;-67
2022/06/03 22:56:32;;;;;;;5.20;4.00;;;;;;;16.00;76.52;101634.84;106970;1253;69573;-68
2022/06/03 22:59:05;;;;;;;7.50;4.70;;;;;;;16.01;77.18;101629.66;107016;1253;70624;-68
2022/06/03 23:01:40;;;;;;;;;;;;;;;16.08;77.26;101628.55;107047;1251;68314;-64
2022/06/03 23:04:08;;;;;;;7.80;4.40;;;;;;;16.09;77.25;101629.31;106865;1251;74363;-64
2022/06/03 23:06:38;;;;;;;6.10;4.50;;;;;;;16.17;77.07;101631.71;107018;1251;62777;-67
2022/06/03 23:09:07;;;;;;;7.00;4.30;;;;;;;16.28;76.77;101628.33;106982;1253;59404;-65
2022/06/03 23:11:37;;;;;;;7.60;4.40;;;;;;;16.37;75.82;101623.70;106956;1253;70924;-68
2022/06/03 23:14:06;;;;;;;6.80;4.60;;;;;;;16.25;76.10;101628.74;107069;1251;72844;-67
2022/06/03 23:16:34;;;;;;;6.30;4.40;;;;;;;16.11;76.40;101625.13;107022;1251;71385;-67
2022/06/03 23:19:03;;;;;;;7.30;4.60;;;;;;;15.98;77.13;101622.17;107035;1251;73334;-68
2022/06/03 23:21:32;;;;;;;6.70;4.90;;;;;;;15.95;77.86;101617.83;106997;1251;62750;-66
2022/06/03 23:24:01;;;;;;;8.30;4.80;;;;;;;16.05;77.42;101614.92;106908;1254;60716;-67
2022/06/03 23:26:32;;;;;;;8.30;4.90;;;;;;;16.08;77.16;101606.58;106797;1252;71915;-67
2022/06/03 23:29:01;;;;;;;10.10;5.30;;;;;;;16.03;77.31;101603.12;107134;1253;71046;-66
2022/06/03 23:31:30;;;;;;;7.40;5.30;;;;;;;15.94;77.56;101603.86;107132;1251;68434;-67
2022/06/03 23:33:59;;;;;;;7.60;4.70;;;;;;;15.81;77.80;101602.44;107169;1251;71943;-67
2022/06/03 23:36:29;;;;;;;7.70;5.00;;;;;;;15.69;78.41;101602.70;107193;1251;60662;-64
2022/06/03 23:38:58;;;;;;;6.10;5.00;;;;;;;15.59;78.87;101597.31;107156;1253;60276;-65
2022/06/03 23:47:02;;;;;;;6.70;5.70;;;;;;;15.39;78.16;101602.42;107183;1251;69845;-67
2022/06/03 23:49:31;;;;;;;9.90;5.70;;;;;;;15.28;79.01;101599.80;107159;1251;71934;-64
2022/06/03 23:52:00;;;;;;;7.10;5.50;;;;;;;15.20;79.25;101599.03;107046;1253;60485;-67
2022/06/03 23:54:31;;;;;;;8.90;4.80;;;;;;;15.12;79.99;101595.75;107123;1251;58885;-68
2022/06/03 23:57:01;;;;;;;7.60;5.30;;;;;;;15.13;80.57;101594.27;107121;1253;70868;-68
2022/06/03 23:59:30;;;;;;;8.20;5.70;;;;;;;15.18;80.02;101593.38;107147;1251;72416;-65
